createdAt,value
2022-11-04T00:00:26.861Z,1000.73
2022-11-04T00:01:23.020Z,1000.74
2022-11-04T00:02:23.059Z,1000.70
2022-11-04T00:03:23.001Z,1000.64
2022-11-04T00:04:22.993Z,1000.62
2022-11-04T00:05:22.982Z,1000.59
2022-11-04T00:06:22.974Z,1000.62
2022-11-04T00:07:22.966Z,1000.63
2022-11-04T00:08:22.954Z,1000.62
2022-11-04T00:09:22.947Z,1000.62
2022-11-04T00:10:22.939Z,1000.58
2022-11-04T00:11:22.931Z,1000.61
2022-11-04T00:12:22.920Z,1000.58
2022-11-04T00:13:22.920Z,1000.60
2022-11-04T00:14:22.904Z,1000.57
2022-11-04T00:15:22.897Z,1000.62
2022-11-04T00:16:22.891Z,1000.60
2022-11-04T00:17:22.932Z,1000.57
2022-11-04T00:18:22.869Z,1000.59
2022-11-04T00:19:22.863Z,1000.59
2022-11-04T00:20:22.850Z,1000.61
2022-11-04T00:21:22.852Z,1000.56
2022-11-04T00:22:22.831Z,1000.54
2022-11-04T00:23:22.824Z,1000.56
2022-11-04T00:24:22.816Z,1000.59
2022-11-04T00:25:23.004Z,1000.63
2022-11-04T00:26:22.797Z,1000.58
2022-11-04T00:27:22.789Z,1000.53
2022-11-04T00:28:22.782Z,1000.58
2022-11-04T00:29:22.770Z,1000.60
2022-11-04T00:30:22.762Z,1000.61
2022-11-04T00:31:22.755Z,1000.55
2022-11-04T00:32:22.745Z,1000.55
2022-11-04T00:33:22.739Z,1000.54
2022-11-04T00:34:22.729Z,1000.49
2022-11-04T00:35:22.720Z,1000.53
2022-11-04T00:36:22.708Z,1000.51
2022-11-04T00:37:22.701Z,1000.50
2022-11-04T00:38:22.691Z,1000.45
2022-11-04T00:39:22.684Z,1000.48
2022-11-04T00:40:22.679Z,1000.47
2022-11-04T00:41:22.664Z,1000.43
2022-11-04T00:42:22.657Z,1000.36
2022-11-04T00:43:22.646Z,1000.42
2022-11-04T00:44:22.639Z,1000.38
2022-11-04T00:45:22.628Z,1000.34
2022-11-04T00:46:22.626Z,1000.38
2022-11-04T00:47:22.611Z,1000.40
2022-11-04T00:48:22.607Z,1000.40
2022-11-04T00:49:22.595Z,1000.38
2022-11-04T00:50:22.585Z,1000.34
2022-11-04T00:51:22.598Z,1000.40
2022-11-04T00:52:22.567Z,1000.39
2022-11-04T00:53:22.558Z,1000.40
2022-11-04T00:54:22.552Z,1000.38
2022-11-04T00:55:22.540Z,1000.44
2022-11-04T00:56:22.532Z,1000.44
2022-11-04T00:57:22.523Z,1000.41
2022-11-04T00:58:22.516Z,1000.42
2022-11-04T00:59:22.506Z,1000.38
2022-11-04T01:00:22.507Z,1000.39
2022-11-04T01:01:22.750Z,1000.37
2022-11-04T01:02:22.629Z,1000.31
2022-11-04T01:03:22.474Z,1000.30
2022-11-04T01:04:22.461Z,1000.29
2022-11-04T01:05:22.450Z,1000.24
2022-11-04T01:06:23.296Z,1000.19
2022-11-04T01:07:22.434Z,1000.13
2022-11-04T01:08:22.426Z,1000.15
2022-11-04T01:09:22.414Z,1000.17
2022-11-04T01:10:22.406Z,1000.15
2022-11-04T01:11:22.399Z,1000.14
2022-11-04T01:12:22.387Z,1000.11
2022-11-04T01:13:22.379Z,1000.10
2022-11-04T01:14:22.386Z,1000.11
2022-11-04T01:15:22.362Z,1000.16
2022-11-04T01:16:22.389Z,1000.09
2022-11-04T01:17:22.347Z,1000.11
2022-11-04T01:18:22.335Z,1000.12
2022-11-04T01:19:22.327Z,1000.10
2022-11-04T01:20:22.316Z,1000.06
2022-11-04T01:21:22.318Z,1000.02
2022-11-04T01:22:22.297Z,1000.03
2022-11-04T01:23:22.289Z,1000.00
2022-11-04T01:24:22.281Z,999.95
2022-11-04T01:25:22.269Z,999.98
2022-11-04T01:26:22.260Z,999.98
2022-11-04T01:27:22.254Z,999.98
2022-11-04T01:28:22.242Z,999.98
2022-11-04T01:29:22.240Z,999.98
2022-11-04T01:30:22.223Z,999.99
2022-11-04T01:31:22.239Z,1000.03
2022-11-04T01:32:22.205Z,1000.04
2022-11-04T01:33:22.195Z,1000.05
2022-11-04T01:34:22.193Z,1000.02
2022-11-04T01:35:22.178Z,1000.04
2022-11-04T01:36:22.169Z,1000.01
2022-11-04T01:37:22.162Z,1000.02
2022-11-04T01:38:22.148Z,999.98
2022-11-04T01:39:22.145Z,999.97
2022-11-04T01:40:22.134Z,999.97
2022-11-04T01:41:22.122Z,999.94
2022-11-04T01:42:22.114Z,999.98
2022-11-04T01:43:22.107Z,999.98
2022-11-04T01:44:22.105Z,1000.01
2022-11-04T01:45:22.084Z,999.98
2022-11-04T01:46:22.072Z,1000.00
2022-11-04T01:47:22.069Z,1000.05
2022-11-04T01:48:22.060Z,1000.00
2022-11-04T01:49:22.047Z,1000.01
2022-11-04T01:50:22.038Z,999.96
2022-11-04T01:51:22.031Z,999.98
2022-11-04T01:52:22.021Z,999.98
2022-11-04T01:53:22.014Z,999.97
2022-11-04T01:54:22.003Z,999.97
2022-11-04T01:55:21.993Z,999.95
2022-11-04T01:56:21.986Z,999.95
2022-11-04T01:57:21.975Z,999.95
2022-11-04T01:58:21.964Z,999.96
2022-11-04T01:59:21.955Z,1000.00
2022-11-04T02:00:21.946Z,999.96
2022-11-04T02:01:21.995Z,999.98
2022-11-04T02:02:22.318Z,999.96
2022-11-04T02:03:21.921Z,999.98
2022-11-04T02:04:21.915Z,999.96
2022-11-04T02:05:21.904Z,999.92
2022-11-04T02:06:21.892Z,999.94
2022-11-04T02:07:21.885Z,999.90
2022-11-04T02:08:21.873Z,999.87
2022-11-04T02:09:21.868Z,999.85
2022-11-04T02:10:21.857Z,999.84
2022-11-04T02:11:21.845Z,999.84
2022-11-04T02:12:21.839Z,999.82
2022-11-04T02:13:21.829Z,999.79
2022-11-04T02:14:21.820Z,999.73
2022-11-04T02:15:21.812Z,999.78
2022-11-04T02:16:21.800Z,999.77
2022-11-04T02:17:21.791Z,999.76
2022-11-04T02:18:21.783Z,999.76
2022-11-04T02:19:21.777Z,999.69
2022-11-04T02:20:21.765Z,999.73
2022-11-04T02:21:21.756Z,999.70
2022-11-04T02:22:21.754Z,999.69
2022-11-04T02:23:21.738Z,999.71
2022-11-04T02:24:21.728Z,999.68
2022-11-04T02:25:21.720Z,999.70
2022-11-04T02:26:21.710Z,999.72
2022-11-04T02:27:21.703Z,999.68
2022-11-04T02:28:21.693Z,999.68
2022-11-04T02:29:21.684Z,999.66
2022-11-04T02:30:21.673Z,999.63
2022-11-04T02:31:21.668Z,999.65
2022-11-04T02:32:21.657Z,999.62
2022-11-04T02:33:21.649Z,999.62
2022-11-04T02:34:21.647Z,999.64
2022-11-04T02:35:21.629Z,999.64
2022-11-04T02:36:21.620Z,999.62
2022-11-04T02:37:21.616Z,999.64
2022-11-04T02:38:21.602Z,999.59
2022-11-04T02:39:21.593Z,999.61
2022-11-04T02:40:21.582Z,999.59
2022-11-04T02:41:21.583Z,999.56
2022-11-04T02:42:21.569Z,999.60
2022-11-04T02:43:21.558Z,999.61
2022-11-04T02:44:21.555Z,999.62
2022-11-04T02:45:21.542Z,999.58
2022-11-04T02:46:21.528Z,999.62
2022-11-04T02:47:21.518Z,999.58
2022-11-04T02:48:21.510Z,999.55
2022-11-04T02:49:21.503Z,999.55
2022-11-04T02:50:21.492Z,999.54
2022-11-04T02:51:21.487Z,999.49
2022-11-04T02:52:21.475Z,999.46
2022-11-04T02:53:21.481Z,999.47
2022-11-04T02:54:21.457Z,999.43
2022-11-04T02:55:21.446Z,999.45
2022-11-04T02:56:21.437Z,999.47
2022-11-04T02:57:21.429Z,999.44
2022-11-04T02:58:21.417Z,999.45
2022-11-04T02:59:21.411Z,999.48
2022-11-04T03:00:21.405Z,999.45
2022-11-04T03:01:21.522Z,999.44
2022-11-04T03:02:21.470Z,999.43
2022-11-04T03:03:21.373Z,999.45
2022-11-04T03:04:21.367Z,999.39
2022-11-04T03:05:21.370Z,999.41
2022-11-04T03:06:21.346Z,999.39
2022-11-04T03:07:21.340Z,999.37
2022-11-04T03:08:21.332Z,999.37
2022-11-04T03:09:21.319Z,999.38
2022-11-04T03:10:21.309Z,999.39
2022-11-04T03:11:21.301Z,999.41
2022-11-04T03:12:21.294Z,999.49
2022-11-04T03:13:21.282Z,999.53
2022-11-04T03:14:21.270Z,999.52
2022-11-04T03:15:21.264Z,999.46
2022-11-04T03:16:21.254Z,999.41
2022-11-04T03:17:21.243Z,999.43
2022-11-04T03:18:21.238Z,999.46
2022-11-04T03:19:21.226Z,999.46
2022-11-04T03:20:21.218Z,999.48
2022-11-04T03:21:21.207Z,999.47
2022-11-04T03:22:21.201Z,999.45
2022-11-04T03:23:21.201Z,999.48
2022-11-04T03:24:21.182Z,999.47
2022-11-04T03:25:21.172Z,999.46
2022-11-04T03:26:21.164Z,999.44
2022-11-04T03:27:21.155Z,999.44
2022-11-04T03:28:21.144Z,999.44
2022-11-04T03:29:21.135Z,999.40
2022-11-04T03:30:21.130Z,999.34
2022-11-04T03:31:21.122Z,999.34
2022-11-04T03:32:21.111Z,999.40
2022-11-04T03:33:21.097Z,999.41
2022-11-04T03:34:21.097Z,999.37
2022-11-04T03:35:21.079Z,999.42
2022-11-04T03:36:21.070Z,999.37
2022-11-04T03:37:21.069Z,999.36
2022-11-04T03:38:21.052Z,999.37
2022-11-04T03:39:21.043Z,999.43
2022-11-04T03:40:21.034Z,999.47
2022-11-04T03:41:21.028Z,999.55
2022-11-04T03:42:21.091Z,999.62
2022-11-04T03:43:21.007Z,999.67
2022-11-04T03:44:20.994Z,999.71
2022-11-04T03:45:20.991Z,999.79
2022-11-04T03:46:20.983Z,999.83
2022-11-04T03:47:20.974Z,999.85
2022-11-04T03:48:20.962Z,999.79
2022-11-04T03:49:20.957Z,999.82
2022-11-04T03:50:20.942Z,999.85
2022-11-04T03:51:20.940Z,999.92
2022-11-04T03:52:20.926Z,999.90
2022-11-04T03:53:20.959Z,999.78
2022-11-04T03:54:20.910Z,999.80
2022-11-04T03:55:20.898Z,999.80
2022-11-04T03:56:20.890Z,999.80
2022-11-04T03:57:20.879Z,999.80
2022-11-04T03:58:20.869Z,999.75
2022-11-04T03:59:20.862Z,999.74
2022-11-04T04:00:20.879Z,999.69
2022-11-04T04:01:20.964Z,999.67
2022-11-04T04:02:20.872Z,999.66
2022-11-04T04:03:20.831Z,999.66
2022-11-04T04:04:20.816Z,999.67
2022-11-04T04:05:20.809Z,999.63
2022-11-04T04:06:20.804Z,999.61
2022-11-04T04:07:20.793Z,999.57
2022-11-04T04:08:20.780Z,999.59
2022-11-04T04:09:20.770Z,999.60
2022-11-04T04:10:20.772Z,999.58
2022-11-04T04:11:20.756Z,999.59
2022-11-04T04:12:20.746Z,999.65
2022-11-04T04:13:20.735Z,999.67
2022-11-04T04:14:20.728Z,999.70
2022-11-04T04:15:20.717Z,999.77
2022-11-04T04:16:23.347Z,999.77
2022-11-04T04:17:20.709Z,999.78
2022-11-04T04:18:20.696Z,999.73
2022-11-04T04:19:20.686Z,999.76
2022-11-04T04:20:20.687Z,999.79
2022-11-04T04:21:20.667Z,999.76
2022-11-04T04:22:20.656Z,999.78
2022-11-04T04:23:20.649Z,999.83
2022-11-04T04:24:20.639Z,999.86
2022-11-04T04:25:20.630Z,999.90
2022-11-04T04:26:20.621Z,999.88
2022-11-04T04:27:20.613Z,999.86
2022-11-04T04:28:20.603Z,999.84
2022-11-04T04:29:20.595Z,999.78
2022-11-04T04:30:20.584Z,999.80
2022-11-04T04:31:20.579Z,999.78
2022-11-04T04:32:20.569Z,999.78
2022-11-04T04:33:20.559Z,999.74
2022-11-04T04:34:20.554Z,999.70
2022-11-04T04:35:20.541Z,999.67
2022-11-04T04:36:20.534Z,999.68
2022-11-04T04:37:20.525Z,999.67
2022-11-04T04:38:20.516Z,999.68
2022-11-04T04:39:20.507Z,999.70
2022-11-04T04:40:24.799Z,999.68
2022-11-04T04:41:20.491Z,999.61
2022-11-04T04:42:20.481Z,999.66
2022-11-04T04:43:20.470Z,999.69
2022-11-04T04:44:20.467Z,999.64
2022-11-04T04:45:20.454Z,999.60
2022-11-04T04:46:20.477Z,999.58
2022-11-04T04:47:20.452Z,999.55
2022-11-04T04:48:20.431Z,999.59
2022-11-04T04:49:20.420Z,999.54
2022-11-04T04:50:20.418Z,999.50
2022-11-04T04:51:20.401Z,999.51
2022-11-04T04:52:20.390Z,999.55
2022-11-04T04:53:20.385Z,999.54
2022-11-04T04:54:20.377Z,999.54
2022-11-04T04:55:20.367Z,999.56
2022-11-04T04:56:20.374Z,999.55
2022-11-04T04:57:20.351Z,999.50
2022-11-04T04:58:20.342Z,999.57
2022-11-04T04:59:20.334Z,999.59
2022-11-04T05:00:20.324Z,999.62
2022-11-04T05:01:20.456Z,999.62
2022-11-04T05:02:20.495Z,999.68
2022-11-04T05:03:20.306Z,999.70
2022-11-04T05:04:20.313Z,999.71
2022-11-04T05:05:20.329Z,999.76
2022-11-04T05:06:20.273Z,999.73
2022-11-04T05:07:20.265Z,999.74
2022-11-04T05:08:20.276Z,999.73
2022-11-04T05:09:20.252Z,999.75
2022-11-04T05:10:20.244Z,999.70
2022-11-04T05:11:24.350Z,999.71
2022-11-04T05:12:20.226Z,999.70
2022-11-04T05:13:20.214Z,999.77
2022-11-04T05:14:20.206Z,999.76
2022-11-04T05:15:20.197Z,999.78
2022-11-04T05:16:20.186Z,999.79
2022-11-04T05:17:20.180Z,999.84
2022-11-04T05:18:20.168Z,999.82
2022-11-04T05:19:20.159Z,999.80
2022-11-04T05:20:20.151Z,999.83
2022-11-04T05:21:20.147Z,999.82
2022-11-04T05:22:20.139Z,999.81
2022-11-04T05:23:20.128Z,999.84
2022-11-04T05:24:20.118Z,999.81
2022-11-04T05:25:20.126Z,999.82
2022-11-04T05:26:20.100Z,999.85
2022-11-04T05:27:20.091Z,999.86
2022-11-04T05:28:20.084Z,999.89
2022-11-04T05:29:20.080Z,999.89
2022-11-04T05:30:20.065Z,999.88
2022-11-04T05:31:20.058Z,999.91
2022-11-04T05:32:20.049Z,999.87
2022-11-04T05:33:20.052Z,999.94
2022-11-04T05:34:20.039Z,999.93
2022-11-04T05:35:20.024Z,999.96
2022-11-04T05:36:20.016Z,999.93
2022-11-04T05:37:20.008Z,999.93
2022-11-04T05:38:19.995Z,999.93
2022-11-04T05:39:19.989Z,999.97
2022-11-04T05:40:19.981Z,999.97
2022-11-04T05:41:19.973Z,999.99
2022-11-04T05:42:19.964Z,1000.00
2022-11-04T05:43:19.962Z,1000.02
2022-11-04T05:44:19.951Z,1000.03
2022-11-04T05:45:19.938Z,1000.01
2022-11-04T05:46:19.927Z,999.98
2022-11-04T05:47:19.925Z,1000.02
2022-11-04T05:48:19.913Z,1000.04
2022-11-04T05:49:19.908Z,1000.05
2022-11-04T05:50:19.896Z,1000.09
2022-11-04T05:51:19.890Z,1000.06
2022-11-04T05:52:19.889Z,1000.11
2022-11-04T05:53:19.907Z,1000.16
2022-11-04T05:54:19.870Z,1000.17
2022-11-04T05:55:19.854Z,1000.16
2022-11-04T05:56:19.852Z,1000.20
2022-11-04T05:57:19.837Z,1000.17
2022-11-04T05:58:19.832Z,1000.20
2022-11-04T05:59:19.827Z,1000.21
2022-11-04T06:00:19.816Z,1000.26
2022-11-04T06:01:19.821Z,1000.29
2022-11-04T06:02:19.884Z,1000.31
2022-11-04T06:03:19.863Z,1000.28
2022-11-04T06:04:19.788Z,1000.26
2022-11-04T06:05:19.769Z,1000.29
2022-11-04T06:06:19.789Z,1000.28
2022-11-04T06:07:19.755Z,1000.29
2022-11-04T06:08:19.749Z,1000.28
2022-11-04T06:09:19.740Z,1000.28
2022-11-04T06:10:19.725Z,1000.32
2022-11-04T06:11:19.720Z,1000.32
2022-11-04T06:12:19.720Z,1000.33
2022-11-04T06:13:19.706Z,1000.38
2022-11-04T06:14:19.737Z,1000.37
2022-11-04T06:15:19.687Z,1000.36
2022-11-04T06:16:19.682Z,1000.35
2022-11-04T06:17:19.673Z,1000.32
2022-11-04T06:18:19.662Z,1000.29
2022-11-04T06:19:19.655Z,1000.30
2022-11-04T06:20:19.645Z,1000.35
2022-11-04T06:21:19.637Z,1000.36
2022-11-04T06:22:19.635Z,1000.40
2022-11-04T06:23:19.620Z,1000.45
2022-11-04T06:24:19.610Z,1000.50
2022-11-04T06:25:19.602Z,1000.54
2022-11-04T06:26:22.692Z,1000.56
2022-11-04T06:27:19.590Z,1000.57
2022-11-04T06:28:19.578Z,1000.56
2022-11-04T06:29:19.569Z,1000.53
2022-11-04T06:30:19.568Z,1000.55
2022-11-04T06:31:19.551Z,1000.56
2022-11-04T06:32:19.549Z,1000.59
2022-11-04T06:33:19.536Z,1000.59
2022-11-04T06:34:19.531Z,1000.56
2022-11-04T06:35:19.521Z,1000.56
2022-11-04T06:36:19.512Z,1000.54
2022-11-04T06:37:19.503Z,1000.57
2022-11-04T06:38:19.495Z,1000.58
2022-11-04T06:39:19.487Z,1000.61
2022-11-04T06:40:19.478Z,1000.63
2022-11-04T06:41:19.471Z,1000.62
2022-11-04T06:42:19.461Z,1000.64
2022-11-04T06:43:19.454Z,1000.65
2022-11-04T06:44:19.447Z,1000.69
2022-11-04T06:45:19.438Z,1000.70
2022-11-04T06:46:19.444Z,1000.73
2022-11-04T06:47:23.653Z,1000.73
2022-11-04T06:48:19.412Z,1000.74
2022-11-04T06:49:19.404Z,1000.76
2022-11-04T06:50:19.395Z,1000.78
2022-11-04T06:51:19.388Z,1000.78
2022-11-04T06:52:19.376Z,1000.76
2022-11-04T06:53:19.372Z,1000.78
2022-11-04T06:54:19.365Z,1000.75
2022-11-04T06:55:19.354Z,1000.79
2022-11-04T06:56:19.347Z,1000.82
2022-11-04T06:57:19.342Z,1000.80
2022-11-04T06:58:19.330Z,1000.85
2022-11-04T06:59:19.319Z,1000.87
2022-11-04T07:00:19.311Z,1000.93
2022-11-04T07:01:22.169Z,1000.88
2022-11-04T07:02:19.436Z,1000.87
2022-11-04T07:03:19.296Z,1000.96
2022-11-04T07:04:19.280Z,1000.97
2022-11-04T07:05:19.275Z,1001.01
2022-11-04T07:06:19.263Z,1001.01
2022-11-04T07:07:19.268Z,1001.02
2022-11-04T07:08:19.253Z,1000.99
2022-11-04T07:09:19.238Z,1000.98
2022-11-04T07:10:19.233Z,1001.00
2022-11-04T07:11:19.223Z,1001.01
2022-11-04T07:12:19.216Z,1001.01
2022-11-04T07:13:19.203Z,1001.02
2022-11-04T07:14:19.200Z,1001.01
2022-11-04T07:15:24.649Z,1001.02
2022-11-04T07:16:19.184Z,1001.03
2022-11-04T07:17:19.174Z,1001.05
2022-11-04T07:18:19.166Z,1001.07
2022-11-04T07:19:19.164Z,1001.10
2022-11-04T07:20:19.150Z,1001.10
2022-11-04T07:21:19.144Z,1001.15
2022-11-04T07:22:19.158Z,1001.08
2022-11-04T07:23:19.131Z,1001.06
2022-11-04T07:24:19.114Z,1001.08
2022-11-04T07:25:19.123Z,1001.08
2022-11-04T07:26:19.097Z,1001.06
2022-11-04T07:27:19.090Z,1001.03
2022-11-04T07:28:19.084Z,1001.00
2022-11-04T07:29:19.081Z,1001.00
2022-11-04T07:30:19.067Z,1000.98
2022-11-04T07:31:19.056Z,1000.98
2022-11-04T07:32:19.053Z,1000.91
2022-11-04T07:33:19.044Z,1000.90
2022-11-04T07:34:19.038Z,1000.88
2022-11-04T07:35:19.025Z,1000.92
2022-11-04T07:36:19.044Z,1000.90
2022-11-04T07:37:19.018Z,1000.93
2022-11-04T07:38:19.022Z,1000.91
2022-11-04T07:39:19.005Z,1000.91
2022-11-04T07:40:18.986Z,1000.91
2022-11-04T07:41:18.978Z,1000.90
2022-11-04T07:42:18.971Z,1000.90
2022-11-04T07:43:18.969Z,1000.83
2022-11-04T07:44:18.960Z,1000.84
2022-11-04T07:45:18.947Z,1000.79
2022-11-04T07:46:18.943Z,1000.87
2022-11-04T07:47:18.932Z,1000.87
2022-11-04T07:48:18.923Z,1000.84
2022-11-04T07:49:18.942Z,1000.86
2022-11-04T07:50:18.967Z,1000.89
2022-11-04T07:51:18.899Z,1000.83
2022-11-04T07:52:18.894Z,1000.80
2022-11-04T07:53:18.920Z,1000.86
2022-11-04T07:54:18.876Z,1000.87
2022-11-04T07:55:18.868Z,1000.88
2022-11-04T07:56:18.862Z,1000.93
2022-11-04T07:57:18.852Z,1000.94
2022-11-04T07:58:18.842Z,1000.88
2022-11-04T07:59:18.873Z,1000.85
2022-11-04T08:00:18.840Z,1000.82
2022-11-04T08:01:18.840Z,1000.84
2022-11-04T08:02:25.127Z,1000.84
2022-11-04T08:03:18.862Z,1000.79
2022-11-04T08:04:18.799Z,1000.80
2022-11-04T08:05:18.802Z,1000.76
2022-11-04T08:06:18.785Z,1000.75
2022-11-04T08:07:18.776Z,1000.77
2022-11-04T08:08:18.767Z,1000.76
2022-11-04T08:09:18.906Z,1000.76
2022-11-04T08:10:18.752Z,1000.74
2022-11-04T08:11:18.747Z,1000.73
2022-11-04T08:12:18.739Z,1000.74
2022-11-04T08:13:18.730Z,1000.74
2022-11-04T08:14:18.742Z,1000.71
2022-11-04T08:15:18.718Z,1000.74
2022-11-04T08:16:18.710Z,1000.76
2022-11-04T08:17:18.701Z,1000.76
2022-11-04T08:18:18.695Z,1000.71
2022-11-04T08:19:18.687Z,1000.76
2022-11-04T08:20:18.681Z,1000.74
2022-11-04T08:21:18.671Z,1000.74
2022-11-04T08:22:18.664Z,1000.71
2022-11-04T08:23:18.660Z,1000.77
2022-11-04T08:24:18.651Z,1000.76
2022-11-04T08:25:18.643Z,1000.81
2022-11-04T08:26:18.636Z,1000.80
2022-11-04T08:27:18.629Z,1000.83
2022-11-04T08:28:18.617Z,1000.82
2022-11-04T08:29:18.616Z,1000.83
2022-11-04T08:30:18.606Z,1000.87
2022-11-04T08:31:18.595Z,1000.89
2022-11-04T08:32:18.590Z,1000.96
2022-11-04T08:33:18.576Z,1000.94
2022-11-04T08:34:18.576Z,1000.97
2022-11-04T08:35:18.568Z,1000.98
2022-11-04T08:36:18.559Z,1001.03
2022-11-04T08:37:18.552Z,1000.98
2022-11-04T08:38:18.543Z,1000.98
2022-11-04T08:39:18.572Z,1000.98
2022-11-04T08:40:18.532Z,1001.00
2022-11-04T08:41:18.525Z,1001.01
2022-11-04T08:42:18.515Z,1001.03
2022-11-04T08:43:18.508Z,1001.04
2022-11-04T08:44:18.519Z,1001.07
2022-11-04T08:45:18.492Z,1001.06
2022-11-04T08:46:18.485Z,1001.10
2022-11-04T08:47:18.478Z,1001.09
2022-11-04T08:48:18.486Z,1001.12
2022-11-04T08:49:21.252Z,1001.11
2022-11-04T08:50:18.456Z,1001.12
2022-11-04T08:51:18.448Z,1001.14
2022-11-04T08:52:18.453Z,1001.16
2022-11-04T08:53:18.453Z,1001.16
2022-11-04T08:54:18.426Z,1001.15
2022-11-04T08:55:18.418Z,1001.17
2022-11-04T08:56:18.411Z,1001.19
2022-11-04T08:57:18.408Z,1001.17
2022-11-04T08:58:18.398Z,1001.22
2022-11-04T08:59:18.412Z,1001.25
2022-11-04T09:00:18.383Z,1001.21
2022-11-04T09:01:18.398Z,1001.19
2022-11-04T09:02:18.535Z,1001.20
2022-11-04T09:03:18.435Z,1001.17
2022-11-04T09:04:18.386Z,1001.14
2022-11-04T09:05:18.347Z,1001.14
2022-11-04T09:06:18.339Z,1001.15
2022-11-04T09:07:18.334Z,1001.24
2022-11-04T09:08:18.327Z,1001.20
2022-11-04T09:09:18.316Z,1001.17
2022-11-04T09:10:18.315Z,1001.17
2022-11-04T09:11:18.303Z,1001.18
2022-11-04T09:12:18.296Z,1001.15
2022-11-04T09:13:18.288Z,1001.14
2022-11-04T09:14:18.289Z,1001.14
2022-11-04T09:15:18.275Z,1001.09
2022-11-04T09:16:18.264Z,1001.07
2022-11-04T09:17:18.258Z,1001.08
2022-11-04T09:18:18.355Z,1001.07
2022-11-04T09:19:18.244Z,1001.09
2022-11-04T09:20:18.236Z,1001.01
2022-11-04T09:21:18.233Z,1001.06
2022-11-04T09:22:18.238Z,1001.02
2022-11-04T09:23:18.215Z,1000.97
2022-11-04T09:24:18.208Z,1000.93
2022-11-04T09:25:18.498Z,1000.93
2022-11-04T09:26:18.202Z,1000.87
2022-11-04T09:27:18.188Z,1000.87
2022-11-04T09:28:18.187Z,1000.83
2022-11-04T09:29:18.170Z,1000.82
2022-11-04T09:30:18.174Z,1000.76
2022-11-04T09:31:18.157Z,1000.76
2022-11-04T09:32:18.167Z,1000.76
2022-11-04T09:33:18.146Z,1000.73
2022-11-04T09:34:18.231Z,1000.76
2022-11-04T09:35:18.130Z,1000.74
2022-11-04T09:36:18.122Z,1000.76
2022-11-04T09:37:18.115Z,1000.78
2022-11-04T09:38:18.133Z,1000.78
2022-11-04T09:39:18.103Z,1000.76
2022-11-04T09:40:18.092Z,1000.75
2022-11-04T09:41:18.084Z,1000.70
2022-11-04T09:42:18.076Z,1000.72
2022-11-04T09:43:18.068Z,1000.74
2022-11-04T09:44:18.062Z,1000.71
2022-11-04T09:45:22.807Z,1000.73
2022-11-04T09:46:18.046Z,1000.75
2022-11-04T09:47:21.812Z,1000.70
2022-11-04T09:48:18.030Z,1000.74
2022-11-04T09:49:18.023Z,1000.72
2022-11-04T09:50:18.183Z,1000.73
2022-11-04T09:51:39.635Z,1000.77
2022-11-04T09:52:18.002Z,1000.75
2022-11-04T09:53:18.012Z,1000.75
2022-11-04T09:54:17.986Z,1000.76
2022-11-04T09:55:17.976Z,1000.76
2022-11-04T09:56:17.969Z,1000.81
2022-11-04T09:57:17.965Z,1000.82
2022-11-04T09:58:17.985Z,1000.85
2022-11-04T09:59:17.949Z,1000.88
2022-11-04T10:00:17.941Z,1000.90
2022-11-04T10:01:18.035Z,1000.85
2022-11-04T10:02:22.054Z,1000.86
2022-11-04T10:03:17.916Z,1000.87
2022-11-04T10:04:17.912Z,1000.86
2022-11-04T10:05:17.912Z,1000.85
2022-11-04T10:06:18.106Z,1000.86
2022-11-04T10:07:17.887Z,1000.85
2022-11-04T10:08:17.882Z,1000.91
2022-11-04T10:09:17.869Z,1000.96
2022-11-04T10:10:17.864Z,1001.06
2022-11-04T10:11:17.857Z,1001.12
2022-11-04T10:12:17.851Z,1001.16
2022-11-04T10:13:17.843Z,1001.21
2022-11-04T10:14:17.834Z,1001.30
2022-11-04T10:15:17.827Z,1001.31
2022-11-04T10:16:17.820Z,1001.38
2022-11-04T10:17:17.813Z,1001.45
2022-11-04T10:18:17.805Z,1001.45
2022-11-04T10:19:17.800Z,1001.46
2022-11-04T10:20:17.791Z,1001.48
2022-11-04T10:21:17.789Z,1001.50
2022-11-04T10:22:17.849Z,1001.53
2022-11-04T10:23:17.771Z,1001.48
2022-11-04T10:24:17.762Z,1001.44
2022-11-04T10:25:17.754Z,1001.43
2022-11-04T10:26:17.748Z,1001.38
2022-11-04T10:27:17.741Z,1001.35
2022-11-04T10:28:17.733Z,1001.31
2022-11-04T10:29:17.734Z,1001.29
2022-11-04T10:30:17.726Z,1001.23
2022-11-04T10:31:17.730Z,1001.20
2022-11-04T10:32:22.045Z,1001.15
2022-11-04T10:33:17.695Z,1001.11
2022-11-04T10:34:17.688Z,1001.14
2022-11-04T10:35:17.681Z,1001.15
2022-11-04T10:36:17.681Z,1001.17
2022-11-04T10:37:17.673Z,1001.23
2022-11-04T10:38:17.741Z,1001.27
2022-11-04T10:39:17.652Z,1001.33
2022-11-04T10:40:17.643Z,1001.39
2022-11-04T10:41:17.631Z,1001.46
2022-11-04T10:42:17.629Z,1001.50
2022-11-04T10:43:17.622Z,1001.53
2022-11-04T10:44:17.616Z,1001.56
2022-11-04T10:45:17.605Z,1001.57
2022-11-04T10:46:17.603Z,1001.54
2022-11-04T10:47:17.591Z,1001.53
2022-11-04T10:48:17.609Z,1001.51
2022-11-04T10:49:17.574Z,1001.51
2022-11-04T10:50:32.988Z,1001.55
2022-11-04T10:51:17.565Z,1001.51
2022-11-04T10:52:22.147Z,1001.58
2022-11-04T10:53:17.554Z,1001.60
2022-11-04T10:54:17.539Z,1001.61
2022-11-04T10:55:17.531Z,1001.62
2022-11-04T10:56:17.575Z,1001.61
2022-11-04T10:57:17.518Z,1001.63
2022-11-04T10:58:17.520Z,1001.62
2022-11-04T10:59:20.319Z,1001.60
2022-11-04T11:00:17.498Z,1001.56
2022-11-04T11:01:17.634Z,1001.55
2022-11-04T11:02:17.495Z,1001.52
2022-11-04T11:03:17.482Z,1001.42
2022-11-04T11:04:17.475Z,1001.41
2022-11-04T11:05:17.458Z,1001.33
2022-11-04T11:06:17.458Z,1001.29
2022-11-04T11:07:17.446Z,1001.35
2022-11-04T11:08:17.441Z,1001.38
2022-11-04T11:09:17.434Z,1001.42
2022-11-04T11:10:17.496Z,1001.43
2022-11-04T11:11:17.418Z,1001.49
2022-11-04T11:12:48.789Z,1001.54
2022-11-04T11:13:17.443Z,1001.56
2022-11-04T11:14:17.397Z,1001.63
2022-11-04T11:15:17.386Z,1001.63
2022-11-04T11:16:17.383Z,1001.67
2022-11-04T11:17:17.371Z,1001.71
2022-11-04T11:18:17.363Z,1001.68
2022-11-04T11:19:17.356Z,1001.71
2022-11-04T11:20:17.401Z,1001.73
2022-11-04T11:21:17.340Z,1001.73
2022-11-04T11:22:17.340Z,1001.76
2022-11-04T11:23:17.328Z,1001.77
2022-11-04T11:24:17.944Z,1001.82
2022-11-04T11:25:17.313Z,1001.81
2022-11-04T11:26:22.286Z,1001.84
2022-11-04T11:27:17.297Z,1001.89
2022-11-04T11:28:17.287Z,1001.92
2022-11-04T11:29:17.281Z,1001.94
2022-11-04T11:30:17.334Z,1001.92
2022-11-04T11:31:17.266Z,1001.95
2022-11-04T11:32:17.260Z,1002.03
2022-11-04T11:33:17.255Z,1002.01
2022-11-04T11:34:17.246Z,1002.05
2022-11-04T11:35:17.234Z,1002.04
2022-11-04T11:36:17.227Z,1002.07
2022-11-04T11:37:17.222Z,1002.07
2022-11-04T11:38:17.218Z,1002.05
2022-11-04T11:39:17.207Z,1002.04
2022-11-04T11:40:17.199Z,1002.08
2022-11-04T11:41:25.798Z,1002.10
2022-11-04T11:42:17.187Z,1002.05
2022-11-04T11:43:17.177Z,1002.06
2022-11-04T11:44:17.207Z,1002.08
2022-11-04T11:45:17.169Z,1002.07
2022-11-04T11:46:17.156Z,1002.06
2022-11-04T11:47:17.152Z,1002.10
2022-11-04T11:48:17.143Z,1002.11
2022-11-04T11:49:17.137Z,1002.09
2022-11-04T11:50:17.129Z,1002.13
2022-11-04T11:51:21.203Z,1002.12
2022-11-04T11:52:17.116Z,1002.18
2022-11-04T11:53:17.106Z,1002.17
2022-11-04T11:54:17.101Z,1002.16
2022-11-04T11:55:17.095Z,1002.12
2022-11-04T11:56:17.090Z,1002.10
2022-11-04T11:57:22.352Z,1002.05
2022-11-04T12:01:24.006Z,1002.03
2022-11-04T12:02:17.181Z,1002.01
2022-11-04T12:03:18.203Z,1001.99
2022-11-04T12:06:17.596Z,1002.03
2022-11-04T12:09:18.215Z,1002.04
2022-11-04T12:10:24.060Z,1002.08
2022-11-04T12:11:16.980Z,1002.04
2022-11-04T12:12:16.970Z,1002.02
2022-11-04T12:13:23.786Z,1002.02
2022-11-04T12:14:16.961Z,1002.00
2022-11-04T12:15:16.950Z,1002.00
2022-11-04T12:16:16.946Z,1002.00
2022-11-04T12:17:16.948Z,1001.99
2022-11-04T12:18:16.930Z,1002.01
2022-11-04T12:19:16.921Z,1002.03
2022-11-04T12:20:16.992Z,1002.01